Time;durP1;ratioP1;P1;durP2;ratioP2;P2;SDS_P1;SDS_P2;PMS_P1;PMS_P2;Temp;Humidity;BMP_temperature;BMP_pressure;BME280_temperature;BME280_humidity;BME280_pressure;Samples;Min_cycle;Max_cycle;Signal;HPM_P1;HPM_P2
2022/10/07 00:00:06;;;;;;;;;5.00;5.00;;;;;28.19;100.00;101467.94;5081186;27;51178;-43
2022/10/07 00:02:50;;;;;;;;;7.25;5.00;;;;;28.19;100.00;101471.53;5080849;27;51441;-44
2022/10/07 00:05:35;;;;;;;;;7.00;3.50;;;;;28.21;100.00;101461.38;5080263;27;51191;-44
2022/10/07 00:08:19;;;;;;;;;7.75;3.50;;;;;28.21;100.00;101458.63;5080650;27;51475;-45
2022/10/07 00:11:06;;;;;;;;;3.00;2.75;;;;;28.21;100.00;101461.38;5058724;27;51154;-43
2022/10/07 00:13:53;;;;;;;;;7.00;4.75;;;;;28.20;100.00;101456.00;5060353;28;51563;-43
2022/10/07 00:16:39;;;;;;;;;7.50;4.75;;;;;28.19;100.00;101454.25;5076575;27;51209;-44
2022/10/07 00:19:24;;;;;;;;;7.75;4.25;;;;;28.19;100.00;101457.84;5067814;27;51229;-43
2022/10/07 00:22:09;;;;;;;;;6.00;3.75;;;;;28.23;100.00;101456.69;5076661;27;51135;-44
2022/10/07 00:24:53;;;;;;;;;7.50;4.00;;;;;28.27;100.00;101450.00;5081007;27;51082;-47
2022/10/07 00:27:38;;;;;;;;;5.25;4.25;;;;;28.27;100.00;101446.41;5070073;27;53193;-44
2022/10/07 00:30:22;;;;;;;;;5.75;4.25;;;;;28.26;100.00;101434.56;5059482;28;51206;-42
2022/10/07 00:33:06;;;;;;;;;4.00;4.00;;;;;28.25;100.00;101443.78;5059717;28;51037;-42
2022/10/07 00:35:51;;;;;;;;;6.50;4.75;;;;;28.25;100.00;101434.66;5060180;28;51179;-44
2022/10/07 00:38:35;;;;;;;;;11.25;6.00;;;;;28.24;100.00;101427.44;5059506;28;51435;-43
2022/10/07 00:41:22;;;;;;;;;7.50;5.25;;;;;28.19;100.00;101427.75;5059319;28;51169;-42
2022/10/07 00:44:35;;;;;;;;;4.25;4.25;;;;;28.17;100.00;101431.59;5067694;27;51457;-45
2022/10/07 00:47:27;;;;;;;;;8.75;5.50;;;;;28.13;100.00;101431.78;5070612;27;51139;-44
2022/10/07 00:50:20;;;;;;;;;6.75;5.25;;;;;28.11;100.00;101427.41;5073343;27;51076;-42
2022/10/07 00:53:05;;;;;;;;;5.00;4.25;;;;;28.10;100.00;101431.97;5079019;27;51093;-42
2022/10/07 00:55:49;;;;;;;;;8.00;6.00;;;;;28.08;100.00;101433.06;5074386;27;51126;-42
2022/10/07 00:58:36;;;;;;;;;7.50;5.50;;;;;28.08;100.00;101424.84;5059135;28;51804;-45
2022/10/07 01:01:21;;;;;;;;;6.00;4.50;;;;;28.08;100.00;101425.75;5059076;28;51200;-43
2022/10/07 01:04:06;;;;;;;;;7.75;4.75;;;;;28.08;100.00;101428.50;5065257;27;53082;-42
2022/10/07 01:06:51;;;;;;;;;7.00;4.75;;;;;28.09;100.00;101427.50;5045525;28;51141;-45
2022/10/07 01:09:36;;;;;;;;;4.25;4.25;;;;;28.06;100.00;101415.84;5073437;27;51403;-41
2022/10/07 01:12:43;;;;;;;;;8.00;4.50;;;;;28.12;100.00;101410.00;5062232;27;51135;-41
2022/10/07 01:15:30;;;;;;;;;10.00;5.25;;;;;28.11;100.00;101408.25;5064990;27;51080;-44
2022/10/07 01:18:23;;;;;;;;;3.25;3.25;;;;;28.12;100.00;101401.81;5078208;27;51413;-43
2022/10/07 01:21:30;;;;;;;;;9.25;5.00;;;;;28.08;100.00;101383.81;5075358;28;51267;-44
2022/10/07 02:03:32;;;;;;;;;7.75;4.25;;;;;27.24;100.00;101364.63;4331895;32;1874555;-42
2022/10/07 02:06:29;;;;;;;;;6.75;4.50;;;;;27.36;100.00;101363.84;5108743;27;51195;-43
2022/10/07 02:09:30;;;;;;;;;5.50;3.75;;;;;27.37;100.00;101351.94;5104966;27;51674;-42
2022/10/07 02:12:22;;;;;;;;;7.75;6.00;;;;;27.49;100.00;101354.88;5112862;27;51052;-42
2022/10/07 02:15:12;;;;;;;;;8.25;5.25;;;;;27.59;100.00;101363.34;5098985;27;51247;-42
2022/10/07 02:18:00;;;;;;;;;4.25;4.00;;;;;27.63;100.00;101359.44;5092091;27;51397;-42
2022/10/07 02:20:47;;;;;;;;;11.00;5.25;;;;;27.68;100.00;101357.25;5101629;27;51143;-44
2022/10/07 02:23:35;;;;;;;;;6.25;6.25;;;;;27.73;100.00;101356.94;5113079;27;51090;-43
2022/10/07 02:26:21;;;;;;;;;7.75;4.50;;;;;27.76;100.00;101356.75;5114915;27;51597;-42
2022/10/07 02:29:08;;;;;;;;;3.75;3.75;;;;;27.76;100.00;101354.00;5097515;27;51245;-46
2022/10/07 02:31:56;;;;;;;;;7.50;6.00;;;;;27.82;100.00;101356.34;5095893;27;51332;-44
2022/10/07 02:34:42;;;;;;;;;7.75;4.50;;;;;27.86;100.00;101354.28;5090666;27;51571;-43
2022/10/07 02:37:30;;;;;;;;;8.00;5.75;;;;;27.89;100.00;101354.97;5114878;27;51261;-44
2022/10/07 02:40:14;;;;;;;;;5.75;4.50;;;;;27.90;100.00;101351.25;5103157;27;51098;-46
2022/10/07 02:43:06;;;;;;;;;7.50;4.00;;;;;27.88;100.00;101344.13;5100426;27;51206;-44
2022/10/07 02:45:58;;;;;;;;;8.50;4.75;;;;;27.87;100.00;101348.72;5098063;27;51096;-42
2022/10/07 02:48:55;;;;;;;;;6.25;5.00;;;;;27.88;100.00;101344.13;5112061;27;51420;-44
2022/10/07 02:52:04;;;;;;;;;9.50;4.75;;;;;27.88;100.00;101349.59;5092858;27;51491;-44
2022/10/07 02:54:56;;;;;;;;;10.00;5.75;;;;;27.81;100.00;101347.25;5093043;27;51221;-43
2022/10/07 02:57:46;;;;;;;;;8.25;4.25;;;;;27.87;100.00;101347.84;5099850;27;51202;-42
2022/10/07 03:00:35;;;;;;;;;6.50;4.00;;;;;27.87;100.00;101337.78;5097681;27;51469;-42
2022/10/07 03:03:20;;;;;;;;;6.50;5.00;;;;;27.82;100.00;101335.34;5084711;27;51302;-43
2022/10/07 03:06:04;;;;;;;;;9.00;6.00;;;;;27.85;100.00;101342.47;5098154;27;51482;-42
2022/10/07 03:08:50;;;;;;;;;7.25;5.50;;;;;27.84;100.00;101336.13;5101317;27;51181;-42
2022/10/07 03:11:38;;;;;;;;;5.25;4.25;;;;;27.84;100.00;101329.75;5095935;27;51176;-44
2022/10/07 03:14:23;;;;;;;;;8.00;5.50;;;;;27.83;100.00;101330.78;5080890;27;51563;-42
2022/10/07 03:17:08;;;;;;;;;5.75;2.75;;;;;27.74;100.00;101315.84;5099781;27;51465;-44
2022/10/07 03:19:52;;;;;;;;;5.00;3.50;;;;;27.80;100.00;101331.84;5101007;27;51068;-43
2022/10/07 03:22:37;;;;;;;;;8.00;5.25;;;;;27.79;100.00;101334.69;5098949;27;51118;-43
2022/10/07 03:25:21;;;;;;;;;7.25;4.75;;;;;27.73;100.00;101333.22;5092104;27;51133;-46
2022/10/07 03:28:06;;;;;;;;;7.00;7.00;;;;;27.79;100.00;101340.16;5097305;27;51177;-42
2022/10/07 03:30:51;;;;;;;;;9.00;5.75;;;;;27.78;100.00;101336.53;5097002;27;51429;-41
2022/10/07 03:33:36;;;;;;;;;14.50;5.50;;;;;27.78;100.00;101328.31;5089205;27;51011;-43
2022/10/07 03:36:22;;;;;;;;;11.50;9.25;;;;;27.79;100.00;101334.69;5099413;27;51107;-43
2022/10/07 03:39:06;;;;;;;;;9.50;6.00;;;;;27.79;100.00;101330.06;5092815;27;51311;-44
2022/10/07 03:41:51;;;;;;;;;8.75;5.00;;;;;27.80;100.00;101333.72;5100015;27;51585;-46
2022/10/07 03:44:37;;;;;;;;;8.00;7.00;;;;;27.79;100.00;101327.34;5099837;27;51164;-45
2022/10/07 03:47:21;;;;;;;;;9.75;4.50;;;;;27.81;100.00;101338.19;5098377;27;51138;-44
2022/10/07 03:50:07;;;;;;;;;8.75;5.00;;;;;27.78;100.00;101331.06;5082009;27;51138;-44
2022/10/07 03:52:52;;;;;;;;;4.75;4.25;;;;;27.77;100.00;101342.09;5091998;27;51199;-44
2022/10/07 03:55:36;;;;;;;;;6.00;5.00;;;;;27.76;100.00;101348.56;5091915;27;51147;-44
2022/10/07 03:58:21;;;;;;;;;7.75;6.00;;;;;27.76;100.00;101346.72;5098206;27;51089;-43
2022/10/07 04:01:11;;;;;;;;;5.75;4.00;;;;;27.74;100.00;101345.03;5094953;27;51198;-42
2022/10/07 04:03:57;;;;;;;;;12.25;6.00;;;;;27.72;100.00;101347.03;5090100;27;51361;-43
2022/10/07 04:06:42;;;;;;;;;7.50;5.25;;;;;27.73;100.00;101348.75;5092780;27;51720;-45
2022/10/07 04:09:29;;;;;;;;;7.50;5.50;;;;;27.72;100.00;101352.50;5095895;27;51100;-44
2022/10/07 04:12:14;;;;;;;;;5.00;1.75;;;;;27.72;100.00;101347.88;5100449;27;51562;-44
2022/10/07 04:15:00;;;;;;;;;4.75;3.25;;;;;27.70;100.00;101343.50;5094429;27;51097;-45
2022/10/07 04:17:46;;;;;;;;;8.00;6.25;;;;;27.68;100.00;101349.94;5090819;27;51540;-46
2022/10/07 04:20:31;;;;;;;;;10.00;6.00;;;;;27.69;100.00;101356.28;5096918;27;51582;-44
2022/10/07 04:23:16;;;;;;;;;5.00;5.00;;;;;27.68;100.00;101357.25;5101470;27;51085;-42
2022/10/07 04:26:00;;;;;;;;;11.00;6.50;;;;;27.68;100.00;101365.47;5100200;27;51071;-43
2022/10/07 04:28:47;;;;;;;;;6.00;5.00;;;;;27.68;100.00;101363.63;5090718;27;51422;-44
2022/10/07 04:31:32;;;;;;;;;7.50;6.00;;;;;27.66;100.00;101368.31;5099201;27;51471;-44
2022/10/07 04:34:16;;;;;;;;;7.00;5.50;;;;;27.65;100.00;101358.34;5099508;27;51122;-43
2022/10/07 04:37:01;;;;;;;;;7.75;5.00;;;;;27.64;100.00;101369.41;5090775;27;51213;-43
2022/10/07 04:39:45;;;;;;;;;10.25;6.25;;;;;27.64;100.00;101380.31;5093257;27;51496;-44
2022/10/07 04:45:34;;;;;;;;;6.25;5.50;;;;;27.63;100.00;101373.09;5092151;27;51199;-43
2022/10/07 04:48:21;;;;;;;;;5.50;5.50;;;;;27.63;100.00;101368.50;5095199;27;51132;-46
2022/10/07 04:51:07;;;;;;;;;5.00;3.00;;;;;27.64;100.00;101378.47;5096730;27;51135;-45
2022/10/07 04:53:52;;;;;;;;;12.00;8.25;;;;;27.67;100.00;101374.66;5088140;27;51432;-45
2022/10/07 04:56:36;;;;;;;;;8.25;6.25;;;;;27.67;100.00;101377.41;5086776;27;51386;-45
2022/10/07 04:59:20;;;;;;;;;11.25;8.00;;;;;27.66;100.00;101379.25;5089883;27;51131;-43
2022/10/07 05:02:05;;;;;;;;;5.75;4.50;;;;;27.67;100.00;101381.00;5096828;27;51059;-44
2022/10/07 05:04:49;;;;;;;;;6.75;5.25;;;;;27.66;100.00;101381.97;5090991;27;51193;-45
2022/10/07 05:07:33;;;;;;;;;9.25;8.75;;;;;27.65;100.00;101380.22;5092377;27;51210;-46
2022/10/07 05:10:19;;;;;;;;;11.25;7.25;;;;;27.65;100.00;101379.34;5098227;27;51161;-42
2022/10/07 05:13:04;;;;;;;;;6.50;6.50;;;;;27.65;100.00;101382.94;5095963;27;51102;-43
2022/10/07 05:15:52;;;;;;;;;8.50;5.75;;;;;27.67;100.00;101372.78;5097067;27;51154;-42
2022/10/07 05:18:37;;;;;;;;;9.00;9.00;;;;;27.68;100.00;101385.50;5093361;27;51103;-42
2022/10/07 05:21:22;;;;;;;;;11.50;9.00;;;;;27.69;100.00;101391.81;5099518;27;51040;-43
2022/10/07 05:24:07;;;;;;;;;10.00;8.00;;;;;27.67;100.00;101389.19;5097831;27;51143;-43
2022/10/07 05:26:51;;;;;;;;;9.25;7.00;;;;;27.69;100.00;101386.34;5093356;27;51076;-43
2022/10/07 05:29:36;;;;;;;;;10.00;7.25;;;;;27.69;100.00;101389.09;5088113;27;51513;-45
2022/10/07 05:32:21;;;;;;;;;13.00;8.75;;;;;27.68;100.00;101398.25;5088662;27;51205;-42
2022/10/07 05:35:05;;;;;;;;;13.50;8.50;;;;;27.72;100.00;101405.28;5090374;27;51462;-46
2022/10/07 05:37:53;;;;;;;;;13.50;9.25;;;;;27.77;100.00;101415.94;5097494;27;51077;-43
2022/10/07 05:40:38;;;;;;;;;13.50;12.50;;;;;27.81;100.00;101409.28;5091307;27;51112;-43
2022/10/07 05:43:22;;;;;;;;;12.50;11.25;;;;;27.83;100.00;101410.94;5090944;27;51541;-43
2022/10/07 05:46:11;;;;;;;;;12.25;8.75;;;;;27.90;100.00;101416.88;5093297;27;51099;-44
2022/10/07 05:48:56;;;;;;;;;17.00;12.25;;;;;27.95;100.00;101425.63;5075883;27;51182;-44
2022/10/07 05:51:41;;;;;;;;;16.50;12.75;;;;;27.93;100.00;101426.72;5090478;27;51187;-42
2022/10/07 05:54:25;;;;;;;;;18.00;16.75;;;;;27.99;100.00;101438.16;5100045;27;51559;-44
2022/10/07 05:57:10;;;;;;;;;22.25;21.00;;;;;28.02;100.00;101436.19;5090207;27;51213;-44
2022/10/07 05:59:55;;;;;;;;;21.50;15.75;;;;;28.07;100.00;101439.47;5095587;27;51526;-46
2022/10/07 06:02:39;;;;;;;;;20.75;18.00;;;;;28.08;100.00;101444.00;5094868;27;51125;-42
2022/10/07 06:05:24;;;;;;;;;18.50;15.00;;;;;28.09;100.00;101435.72;5068020;27;51035;-44
2022/10/07 06:08:09;;;;;;;;;26.00;18.00;;;;;28.13;100.00;101441.84;5091765;27;51082;-43
2022/10/07 06:13:57;;;;;;;;;19.25;17.75;;;;;28.19;100.00;101452.38;5099719;27;51183;-45
2022/10/07 06:16:41;;;;;;;;;17.00;15.75;;;;;28.24;100.00;101452.97;5096934;27;51091;-46
2022/10/07 06:19:26;;;;;;;;;26.75;19.25;;;;;28.31;100.00;101464.34;5089918;27;51164;-43
2022/10/07 06:22:10;;;;;;;;;22.25;16.50;;;;;28.40;100.00;101460.13;5097417;27;51038;-43
2022/10/07 06:25:00;;;;;;;;;19.25;15.00;;;;;28.51;100.00;101473.94;5094213;27;51047;-43
2022/10/07 06:27:46;;;;;;;;;27.50;21.75;;;;;28.60;100.00;101466.97;5094482;27;51036;-45
2022/10/07 06:30:30;;;;;;;;;30.25;22.00;;;;;28.71;100.00;101478.09;5090205;27;51062;-43
2022/10/07 06:33:16;;;;;;;;;23.00;18.50;;;;;28.84;100.00;101482.72;5096757;27;51256;-44
2022/10/07 06:36:05;;;;;;;;;26.25;22.75;;;;;28.97;100.00;101489.09;5089259;27;51172;-44
2022/10/07 06:38:51;;;;;;;;;20.00;15.25;;;;;29.06;100.00;101493.06;5091843;27;51101;-43
2022/10/07 06:41:36;;;;;;;;;17.75;13.25;;;;;29.12;100.00;101492.63;5095878;27;51112;-43
2022/10/07 06:44:20;;;;;;;;;18.00;12.25;;;;;29.16;100.00;101491.41;5101709;27;50981;-45
2022/10/07 06:47:05;;;;;;;;;16.75;12.00;;;;;29.16;100.00;101499.66;5090202;27;51289;-43
2022/10/07 06:49:50;;;;;;;;;16.00;14.75;;;;;29.18;100.00;101496.78;5097591;27;51225;-37
2022/10/07 06:52:35;;;;;;;;;14.25;12.50;;;;;29.20;100.00;101505.78;5095935;27;51751;-37
2022/10/07 06:55:20;;;;;;;;;21.50;17.00;;;;;29.25;100.00;101510.94;5100142;27;51098;-37
2022/10/07 06:58:04;;;;;;;;;21.25;16.00;;;;;29.29;100.00;101509.75;5088808;27;51161;-36
2022/10/07 07:00:49;;;;;;;;;20.00;15.00;;;;;29.29;100.00;101517.97;5093229;27;51511;-38
2022/10/07 07:03:34;;;;;;;;;24.75;19.50;;;;;29.25;100.00;101517.31;5089205;27;51120;-37
2022/10/07 07:06:19;;;;;;;;;19.25;18.50;;;;;29.27;100.00;101525.41;5094554;27;51202;-39
2022/10/07 07:09:04;;;;;;;;;31.00;25.00;;;;;29.29;100.00;101523.44;5100870;27;51440;-38
2022/10/07 07:11:48;;;;;;;;;22.25;19.50;;;;;29.31;100.00;101533.31;5101942;27;51285;-37
2022/10/07 07:14:34;;;;;;;;;19.75;14.00;;;;;29.34;100.00;101533.13;5101695;27;51140;-37
2022/10/07 07:17:19;;;;;;;;;24.75;18.75;;;;;29.32;100.00;101528.69;5102417;27;51178;-38
2022/10/07 07:20:04;;;;;;;;;16.50;14.00;;;;;29.41;100.00;101538.16;5101232;27;51105;-38
2022/10/07 07:22:51;;;;;;;;;20.50;18.75;;;;;29.44;100.00;101538.81;5102329;27;51481;-38
2022/10/07 07:25:39;;;;;;;;;21.00;18.25;;;;;29.44;100.00;101540.69;5102597;27;52764;-38
2022/10/07 07:28:23;;;;;;;;;28.25;24.25;;;;;29.41;100.00;101541.81;5101943;27;51178;-37
2022/10/07 07:31:11;;;;;;;;;24.00;18.00;;;;;29.37;100.00;101552.09;5093036;27;52009;-37
2022/10/07 07:33:59;;;;;;;;;19.75;16.00;;;;;29.38;100.00;101556.59;5096354;27;51519;-38
2022/10/07 07:36:47;;;;;;;;;31.00;24.50;;;;;29.40;100.00;101567.47;5091945;27;51159;-38
2022/10/07 07:39:31;;;;;;;;;3.25;2.75;;;;;29.44;100.00;101570.84;5102743;27;51395;-37
2022/10/07 07:42:17;;;;;;;;;28.75;22.75;;;;;29.45;100.00;101570.72;5102275;27;51129;-38
2022/10/07 07:45:02;;;;;;;;;24.50;21.50;;;;;29.48;100.00;101580.59;5098225;27;51075;-38
2022/10/07 07:47:48;;;;;;;;;17.00;15.25;;;;;29.49;100.00;101588.72;5094169;27;51205;-37
2022/10/07 07:50:33;;;;;;;;;17.50;14.00;;;;;29.52;100.00;101582.16;5097824;27;51155;-38
2022/10/07 07:53:18;;;;;;;;;8.75;8.25;;;;;29.49;100.00;101585.09;5092526;27;51126;-37
2022/10/07 07:56:03;;;;;;;;;16.00;12.50;;;;;29.46;100.00;101583.47;5097836;27;51104;-37
2022/10/07 07:58:47;;;;;;;;;17.00;12.50;;;;;29.52;100.00;101591.22;5102023;27;51376;-37
2022/10/07 08:01:34;;;;;;;;;14.00;12.00;;;;;29.56;100.00;101597.41;5093701;27;51372;-40
2022/10/07 08:04:18;;;;;;;;;12.00;10.50;;;;;29.59;100.00;101588.06;5100782;27;51395;-38
2022/10/07 08:07:03;;;;;;;;;13.75;11.50;;;;;29.69;100.00;101597.41;5100650;27;51142;-38
2022/10/07 08:09:48;;;;;;;;;15.75;11.00;;;;;29.82;100.00;101601.03;5102135;27;51036;-37
2022/10/07 08:12:33;;;;;;;;;18.25;14.00;;;;;29.87;100.00;101599.81;5094997;27;51136;-38
2022/10/07 08:15:17;;;;;;;;;13.75;11.00;;;;;29.95;100.00;101605.63;5099903;27;51398;-40
2022/10/07 08:18:04;;;;;;;;;16.00;13.00;;;;;30.17;100.00;101607.72;5074244;27;51036;-39
2022/10/07 08:21:01;;;;;;;;;5.25;4.75;;;;;30.54;100.00;101599.50;5096797;27;51126;-37
2022/10/07 08:23:48;;;;;;;;;16.00;10.25;;;;;30.90;100.00;101596.84;5101485;27;51576;-39
2022/10/07 08:26:34;;;;;;;;;13.50;11.25;;;;;31.70;100.00;101598.00;5097109;27;51098;-38
2022/10/07 08:29:20;;;;;;;;;13.75;11.25;;;;;32.84;100.00;101586.91;5101438;27;51499;-37
2022/10/07 08:32:04;;;;;;;;;7.75;6.50;;;;;33.43;100.00;101571.75;5101442;27;51210;-39
2022/10/07 08:34:49;;;;;;;;;7.00;1.50;;;;;33.34;100.00;101559.63;5101580;27;51102;-39
2022/10/07 08:37:33;;;;;;;;;10.25;8.25;;;;;33.71;100.00;101579.41;5097299;27;51028;-37
2022/10/07 08:40:18;;;;;;;;;12.00;8.00;;;;;34.04;100.00;101567.25;5089534;27;52390;-36
2022/10/07 08:43:03;;;;;;;;;9.25;7.75;;;;;34.25;100.00;101566.31;5093701;27;51067;-38
2022/10/07 08:45:47;;;;;;;;;13.00;9.00;;;;;34.40;100.00;101573.19;5087551;27;51118;-38
2022/10/07 08:48:35;;;;;;;;;6.25;4.50;;;;;34.52;100.00;101565.69;5093435;27;51519;-38
2022/10/07 08:51:49;;;;;;;;;7.75;5.00;;;;;34.67;100.00;101559.72;5096178;27;51165;-38
2022/10/07 08:54:34;;;;;;;;;13.00;6.75;;;;;34.65;100.00;101573.69;5099961;27;51131;-38
2022/10/07 08:57:45;;;;;;;;;6.75;4.50;;;;;34.64;100.00;101579.38;5095619;27;51169;-38
2022/10/07 09:00:56;;;;;;;;;6.00;4.00;;;;;34.43;100.00;101580.34;5064778;27;51189;-38
2022/10/07 09:04:15;;;;;;;;;5.25;3.50;;;;;34.23;100.00;101584.91;5100306;27;51181;-37
2022/10/07 09:07:11;;;;;;;;;5.75;5.75;;;;;34.26;100.00;101595.69;5084938;27;51171;-40
2022/10/07 09:10:07;;;;;;;;;7.75;4.50;;;;;34.20;100.00;101596.22;5100469;27;51169;-39
2022/10/07 09:12:58;;;;;;;;;5.00;4.25;;;;;34.02;100.00;101585.00;5096879;27;51099;-38
2022/10/07 09:15:50;;;;;;;;;4.00;4.00;;;;;34.00;100.00;101598.91;5100368;27;51186;-38
2022/10/07 09:18:40;;;;;;;;;6.25;3.75;;;;;33.87;100.00;101595.50;5097756;27;51218;-39
2022/10/07 09:21:40;;;;;;;;;8.75;5.00;;;;;33.73;100.00;101583.81;5084613;27;52725;-37
2022/10/07 09:24:28;;;;;;;;;11.75;5.25;;;;;33.65;100.00;101595.53;5084837;27;51095;-39
2022/10/07 09:27:15;;;;;;;;;4.50;4.50;;;;;33.64;100.00;101591.00;5097571;27;52624;-39
2022/10/07 09:30:00;;;;;;;;;7.25;4.75;;;;;33.56;100.00;101593.59;5090345;27;51140;-38
2022/10/07 09:32:47;;;;;;;;;6.50;6.00;;;;;33.82;100.00;101605.06;5095432;27;51341;-38
2022/10/07 09:35:32;;;;;;;;;9.00;5.25;;;;;34.01;100.00;101608.94;5099745;27;51067;-38
2022/10/07 09:38:31;;;;;;;;;9.50;7.00;;;;;34.10;100.00;101604.50;5082886;27;51169;-40
2022/10/07 09:41:35;;;;;;;;;7.50;6.75;;;;;34.28;100.00;101601.94;5099737;27;51493;-38
2022/10/07 09:44:26;;;;;;;;;10.25;4.25;;;;;34.47;100.00;101589.22;5092698;27;51184;-37
2022/10/07 09:47:18;;;;;;;;;5.50;3.75;;;;;34.75;100.00;101576.47;5078609;27;51154;-39
2022/10/07 09:50:03;;;;;;;;;5.75;5.75;;;;;35.00;100.00;101574.16;5091638;27;51161;-38
2022/10/07 09:52:55;;;;;;;;;8.50;5.50;;;;;35.30;100.00;101559.28;5099510;27;51190;-37
2022/10/07 09:55:40;;;;;;;;;10.25;6.25;;;;;35.63;100.00;101558.91;5096980;27;51225;-37
2022/10/07 09:58:30;;;;;;;;;7.00;6.00;;;;;35.76;100.00;101551.16;5095838;27;51113;-39
2022/10/07 10:01:15;;;;;;;;;7.75;5.75;;;;;35.77;100.00;101549.28;5097645;27;51118;-39
2022/10/07 10:04:00;;;;;;;;;7.25;4.25;;;;;35.63;100.00;101556.16;5100000;27;51209;-39
2022/10/07 10:06:47;;;;;;;;;7.50;6.25;;;;;35.35;100.00;101559.69;5069745;27;51460;-39
2022/10/07 10:09:34;;;;;;;;;10.75;6.50;;;;;35.18;100.00;101560.47;5088539;27;51276;-39
2022/10/07 10:12:20;;;;;;;;;3.50;3.50;;;;;35.09;100.00;101562.22;5094248;27;51402;-38
2022/10/07 10:15:26;;;;;;;;;11.25;4.50;;;;;34.93;100.00;101556.41;5088652;27;50978;-39
2022/10/07 10:18:32;;;;;;;;;9.00;6.25;;;;;34.69;100.00;101565.97;5087483;27;51461;-38
2022/10/07 10:21:28;;;;;;;;;6.50;6.00;;;;;34.39;100.00;101571.47;5093332;27;51470;-39
2022/10/07 10:24:14;;;;;;;;;7.75;6.25;;;;;34.10;100.00;101574.97;5100749;27;51248;-40
2022/10/07 10:27:19;;;;;;;;;4.75;2.25;;;;;33.79;100.00;101572.22;5072714;27;51054;-39
2022/10/07 10:30:06;;;;;;;;;6.50;2.00;;;;;33.68;100.00;101566.78;5085660;27;51159;-41
2022/10/07 10:33:03;;;;;;;;;6.00;4.25;;;;;33.55;100.00;101566.16;5074714;27;51416;-39
2022/10/07 10:36:23;;;;;;;;;7.00;4.00;;;;;33.46;100.00;101576.09;5103891;27;51209;-40
2022/10/07 10:39:29;;;;;;;;;5.00;4.25;;;;;33.64;100.00;101576.34;5098215;27;51304;-39
2022/10/07 10:42:21;;;;;;;;;5.75;4.00;;;;;33.64;100.00;101571.69;5094389;27;51351;-40
2022/10/07 10:45:14;;;;;;;;;5.00;5.00;;;;;33.63;100.00;101586.50;5076597;27;51298;-39
2022/10/07 10:48:21;;;;;;;;;8.00;5.75;;;;;33.75;100.00;101570.75;5093987;27;51220;-39
2022/10/07 10:51:20;;;;;;;;;6.75;4.75;;;;;33.82;100.00;101569.19;5086329;27;51324;-40
2022/10/07 10:54:37;;;;;;;;;9.25;8.25;;;;;33.79;100.00;101558.41;5100693;27;51228;-40
2022/10/07 10:57:50;;;;;;;;;8.25;5.25;;;;;33.73;100.00;101545.16;5066058;27;51166;-39
2022/10/07 11:00:49;;;;;;;;;6.75;5.00;;;;;33.73;100.00;101541.53;5100833;27;51300;-40
2022/10/07 11:03:46;;;;;;;;;7.25;5.25;;;;;33.83;100.00;101543.31;5084387;27;51555;-39
2022/10/07 11:06:32;;;;;;;;;9.25;7.00;;;;;33.95;100.00;101526.69;5099951;27;51394;-40
2022/10/07 11:09:28;;;;;;;;;5.50;5.25;;;;;34.08;100.00;101524.53;5100404;27;51168;-39
2022/10/07 11:12:36;;;;;;;;;11.75;7.00;;;;;34.13;100.00;101532.38;5084116;27;51119;-40
2022/10/07 11:15:29;;;;;;;;;11.75;10.00;;;;;34.30;100.00;101517.91;5087477;27;51142;-40
2022/10/07 11:18:34;;;;;;;;;7.25;7.25;;;;;34.47;100.00;101517.38;5089729;27;51213;-41
2022/10/07 11:21:43;;;;;;;;;7.75;6.75;;;;;34.52;100.00;101512.28;5092705;27;51370;-39
2022/10/07 11:25:02;;;;;;;;;15.50;10.00;;;;;34.42;100.00;101504.00;5091139;27;51121;-39
2022/10/07 11:27:51;;;;;;;;;12.50;11.00;;;;;34.10;100.00;101489.38;5062630;27;51328;-39
2022/10/07 11:30:46;;;;;;;;;13.75;13.75;;;;;33.88;100.00;101484.97;5084153;27;51479;-41
2022/10/07 11:33:43;;;;;;;;;16.00;15.00;;;;;33.92;100.00;101469.84;5078255;27;51553;-41
2022/10/07 11:36:51;;;;;;;;;15.00;14.00;;;;;34.08;100.00;101457.41;5089636;27;51120;-42
2022/10/07 11:39:37;;;;;;;;;8.50;7.00;;;;;34.25;100.00;101442.88;5092807;27;52421;-39
2022/10/07 11:42:30;;;;;;;;;8.50;6.00;;;;;34.36;100.00;101432.72;5100746;27;51180;-40
2022/10/07 11:45:23;;;;;;;;;9.50;6.50;;;;;34.45;100.00;101431.88;5094876;27;51167;-39
2022/10/07 11:48:14;;;;;;;;;13.50;10.75;;;;;34.42;100.00;101430.28;5085312;27;51555;-39
2022/10/07 11:51:02;;;;;;;;;12.25;8.75;;;;;34.36;100.00;101417.03;5085616;27;51190;-39
2022/10/07 11:53:47;;;;;;;;;10.50;8.25;;;;;34.34;100.00;101405.25;5101553;27;51397;-39
2022/10/07 11:56:49;;;;;;;;;9.50;8.25;;;;;34.36;100.00;101397.69;5085133;27;51147;-40
2022/10/07 11:59:49;;;;;;;;;11.50;10.00;;;;;34.40;100.00;101388.09;5091029;27;51173;-39
2022/10/07 12:02:38;;;;;;;;;11.75;8.25;;;;;34.27;100.00;101401.34;5100480;27;51126;-39
2022/10/07 12:05:35;;;;;;;;;14.50;9.25;;;;;34.09;100.00;101396.50;5085735;27;51598;-40
2022/10/07 12:08:27;;;;;;;;;12.75;7.25;;;;;34.01;100.00;101409.31;5096426;27;52261;-41
2022/10/07 12:11:12;;;;;;;;;11.50;5.50;;;;;33.96;100.00;101409.75;5099198;27;51285;-39
2022/10/07 12:14:38;;;;;;;;;14.50;9.75;;;;;33.84;100.00;101418.09;5101608;27;51133;-39
2022/10/07 12:17:27;;;;;;;;;13.75;8.75;;;;;33.56;100.00;101419.78;5099534;27;51064;-40
2022/10/07 12:20:33;;;;;;;;;12.00;7.50;;;;;33.35;100.00;101417.06;5099988;27;52056;-40
2022/10/07 12:23:21;;;;;;;;;10.25;7.00;;;;;33.13;100.00;101418.97;5093149;27;51159;-39
2022/10/07 12:26:30;;;;;;;;;5.25;5.25;;;;;32.94;100.00;101421.59;5098654;27;51137;-39
2022/10/07 12:29:30;;;;;;;;;14.25;8.50;;;;;32.72;100.00;101416.09;5101493;27;51115;-40
2022/10/07 12:32:51;;;;;;;;;10.00;8.75;;;;;32.66;100.00;101418.50;5085857;27;51528;-39
2022/10/07 12:35:40;;;;;;;;;7.50;6.50;;;;;32.56;100.00;101415.66;5017108;28;51239;-39
2022/10/07 12:38:27;;;;;;;;;10.25;7.50;;;;;32.51;100.00;101413.31;5098649;27;51372;-39
2022/10/07 12:41:21;;;;;;;;;7.00;4.50;;;;;32.44;100.00;101406.59;5080066;27;51188;-40
2022/10/07 12:44:29;;;;;;;;;8.50;4.00;;;;;32.32;100.00;101394.78;5074641;27;51567;-39
2022/10/07 12:47:28;;;;;;;;;13.00;6.00;;;;;32.28;100.00;101396.03;5082156;27;51193;-41
2022/10/07 12:50:16;;;;;;;;;5.25;4.75;;;;;32.26;100.00;101390.66;5093040;27;51146;-39
2022/10/07 12:53:02;;;;;;;;;7.00;5.75;;;;;32.22;100.00;101385.53;5078398;27;51252;-40
2022/10/07 12:55:49;;;;;;;;;13.75;6.50;;;;;32.22;100.00;101371.75;5099034;27;51092;-39
2022/10/07 13:02:17;;;;;;;;;8.00;2.75;;;;;32.28;100.00;101363.84;5097236;27;51201;-40
2022/10/07 13:05:23;;;;;;;;;5.75;5.75;;;;;32.28;100.00;101358.34;5100758;27;51167;-39
2022/10/07 13:08:29;;;;;;;;;8.50;5.50;;;;;32.32;100.00;101339.72;5089825;27;51407;-39
2022/10/07 13:11:25;;;;;;;;;4.75;4.75;;;;;32.33;100.00;101326.78;5098327;27;51201;-40
2022/10/07 13:14:37;;;;;;;;;6.00;4.50;;;;;32.30;100.00;101326.03;5099858;27;51091;-40
2022/10/07 13:17:47;;;;;;;;;9.25;5.25;;;;;32.24;100.00;101321.09;5086902;27;51200;-40
2022/10/07 13:20:41;;;;;;;;;6.00;4.00;;;;;32.23;100.00;101321.16;5069017;27;51228;-40
2022/10/07 13:23:27;;;;;;;;;6.25;5.00;;;;;32.23;100.00;101319.31;5083118;27;51164;-40
2022/10/07 13:26:13;;;;;;;;;10.25;8.25;;;;;32.18;100.00;101307.81;5098673;27;51342;-40
2022/10/07 13:28:59;;;;;;;;;12.50;8.50;;;;;32.12;100.00;101308.34;5070544;27;51200;-40
2022/10/07 13:32:16;;;;;;;;;9.50;8.25;;;;;32.07;100.00;101308.75;5090520;27;51582;-40
2022/10/07 13:35:30;;;;;;;;;9.50;6.00;;;;;32.08;100.00;101304.09;5095649;27;51086;-41
2022/10/07 13:38:26;;;;;;;;;12.25;6.00;;;;;32.08;100.00;101302.25;5098653;27;51090;-38
2022/10/07 13:41:20;;;;;;;;;5.00;3.50;;;;;32.02;100.00;101296.41;5084448;27;51321;-38
2022/10/07 13:44:05;;;;;;;;;5.00;4.00;;;;;31.80;100.00;101292.72;5088749;27;51192;-41